< < Back
Terminal Aerodrome Forecast


Current Version              Previous Versions:   1  2  3  4  5  6  7  8  9  

Terminal Aerodrome Forecast

990
FTUS44 KOHX 230500
TAFBNA
TAF
KBNA 230520Z 2306/2406 06003KT P6SM SCT250
     FM231400 14006KT P6SM SCT120=

Latest METAR

417
SAUS70 KWBC 231600 RRE
MTRBNA
METAR KBNA 231553Z 14003KT 10SM SCT110 BKN180 BKN250 22/09 A3035 RMK AO2
SLP274 T02220094


USA.gov is the U.S. government's official web portal to all federal, state and local government web resources and services.